createdAt,value
2016-05-03T00:00:18.318Z,56.28
2016-05-03T00:01:18.352Z,56.76
2016-05-03T00:02:18.386Z,56.85
2016-05-03T00:03:18.420Z,57.33
2016-05-03T00:04:18.454Z,56.85
2016-05-03T00:05:18.488Z,57.71
2016-05-03T00:06:18.382Z,57.33
2016-05-03T00:07:19.259Z,57.14
2016-05-03T00:08:18.605Z,56.57
2016-05-03T00:09:18.639Z,56.38
2016-05-03T00:10:18.690Z,57.33
2016-05-03T00:11:18.707Z,56.38
2016-05-03T00:12:18.585Z,56.47
2016-05-03T00:13:18.791Z,57.24
2016-05-03T00:14:18.825Z,56.09
2016-05-03T00:15:18.859Z,56.76
2016-05-03T00:16:18.893Z,56.95
2016-05-03T00:17:18.926Z,56.85
2016-05-03T00:18:18.961Z,55.99
2016-05-03T00:19:18.995Z,56.28
2016-05-03T00:20:19.045Z,56.47
2016-05-03T00:21:19.078Z,57.24
2016-05-03T00:22:20.065Z,57.11
2016-05-03T00:23:19.146Z,57.53
2016-05-03T00:24:19.164Z,57.43
2016-05-03T00:25:19.215Z,57.9
2016-05-03T00:26:19.249Z,57.33
2016-05-03T00:27:19.299Z,58.07
2016-05-03T00:28:19.316Z,57.71
2016-05-03T00:29:19.350Z,57.62
2016-05-03T00:30:19.388Z,57.53
2016-05-03T00:31:19.437Z,57.81
2016-05-03T00:32:19.457Z,58
2016-05-03T00:33:19.335Z,58.19
2016-05-03T00:34:19.540Z,58
2016-05-03T00:35:19.557Z,58.29
2016-05-03T00:36:19.452Z,58.16
2016-05-03T00:37:19.657Z,58.86
2016-05-03T00:38:19.679Z,58.67
2016-05-03T00:39:19.557Z,58.36
2016-05-03T00:40:19.746Z,58.64
2016-05-03T00:41:19.780Z,59.41
2016-05-03T00:42:19.814Z,59.59
2016-05-03T00:43:19.849Z,60.07
2016-05-03T00:44:19.882Z,59.5
2016-05-03T00:45:19.932Z,59.59
2016-05-03T00:46:19.965Z,60.2
2016-05-03T00:47:19.843Z,60.36
2016-05-03T00:48:20.034Z,60.07
2016-05-03T00:49:20.068Z,60.2
2016-05-03T00:50:20.101Z,60.58
2016-05-03T00:51:20.136Z,60.3
2016-05-03T00:52:20.185Z,61.13
2016-05-03T00:53:20.203Z,61.6
2016-05-03T00:54:20.253Z,61.98
2016-05-03T00:55:20.287Z,62.46
2016-05-03T00:56:20.320Z,63.13
2016-05-03T00:57:20.355Z,62.27
2016-05-03T00:58:20.389Z,63.13
2016-05-03T00:59:20.422Z,63.23
2016-05-03T01:00:20.300Z,63.42
2016-05-03T01:01:20.491Z,63.8
2016-05-03T01:02:20.524Z,63.42
2016-05-03T01:03:20.559Z,63.8
2016-05-03T01:04:20.592Z,64.28
2016-05-03T01:05:20.641Z,64.28
2016-05-03T01:06:20.677Z,64.18
2016-05-03T01:07:20.554Z,64.18
2016-05-03T01:08:20.588Z,64.75
2016-05-03T01:09:20.777Z,65.14
2016-05-03T01:10:20.813Z,65.33
2016-05-03T01:11:20.845Z,65.23
2016-05-03T01:12:20.880Z,65.14
2016-05-03T01:13:20.913Z,65.42
2016-05-03T01:14:20.790Z,65.14
2016-05-03T01:15:20.982Z,65.9
2016-05-03T01:16:21.031Z,65.71
2016-05-03T01:17:20.909Z,65.61
2016-05-03T01:18:21.083Z,65.71
2016-05-03T01:19:20.977Z,65.71
2016-05-03T01:20:21.167Z,65.8
2016-05-03T01:21:21.201Z,65.8
2016-05-03T01:22:21.250Z,66.09
2016-05-03T01:23:21.268Z,66.28
2016-05-03T01:24:21.303Z,66.95
2016-05-03T01:25:21.196Z,66.66
2016-05-03T01:26:21.370Z,66.56
2016-05-03T01:27:21.404Z,66.47
2016-05-03T01:28:21.454Z,66.47
2016-05-03T01:29:21.488Z,66.85
2016-05-03T01:30:21.522Z,66.28
2016-05-03T01:31:21.555Z,66.38
2016-05-03T01:32:21.590Z,66.19
2016-05-03T01:33:21.624Z,65.9
2016-05-03T01:34:21.502Z,65.71
2016-05-03T01:35:21.692Z,66
2016-05-03T01:36:21.725Z,66.09
2016-05-03T01:37:21.619Z,65.8
2016-05-03T01:38:21.794Z,65.9
2016-05-03T01:39:21.843Z,66.38
2016-05-03T01:40:21.877Z,65.9
2016-05-03T01:41:21.911Z,66.56
2016-05-03T01:42:21.945Z,66.47
2016-05-03T01:43:21.979Z,66
2016-05-03T01:44:22.013Z,66
2016-05-03T01:45:22.046Z,66.19
2016-05-03T01:46:22.080Z,66.66
2016-05-03T01:47:22.115Z,66.76
2016-05-03T01:48:22.149Z,66.85
2016-05-03T01:49:22.198Z,67.62
2016-05-03T01:50:22.216Z,66.95
2016-05-03T01:51:22.266Z,66.85
2016-05-03T01:52:22.284Z,67.52
2016-05-03T01:53:22.335Z,67.68
2016-05-03T01:54:22.368Z,67.24
2016-05-03T01:55:22.401Z,67.52
2016-05-03T01:56:22.280Z,67.91
2016-05-03T01:57:22.470Z,67.71
2016-05-03T01:58:22.503Z,67.91
2016-05-03T01:59:22.537Z,67.81
2016-05-03T02:00:22.572Z,68.06
2016-05-03T02:01:22.606Z,68.1
2016-05-03T02:02:22.655Z,68.35
2016-05-03T02:03:22.517Z,68.26
2016-05-03T02:04:22.708Z,68.26
2016-05-03T02:05:22.742Z,68.16
2016-05-03T02:06:22.792Z,67.49
2016-05-03T02:07:22.824Z,67.4
2016-05-03T02:08:22.859Z,67.21
2016-05-03T02:09:22.892Z,67.77
2016-05-03T02:10:22.911Z,67.77
2016-05-03T02:11:22.961Z,67.97
2016-05-03T02:12:22.994Z,68.16
2016-05-03T02:13:23.028Z,67.77
2016-05-03T02:14:23.063Z,67.49
2016-05-03T02:15:23.096Z,67.68
2016-05-03T02:16:23.130Z,67.97
2016-05-03T02:17:23.164Z,68.06
2016-05-03T02:18:23.198Z,68.06
2016-05-03T02:19:23.248Z,68.06
2016-05-03T02:20:23.282Z,68.16
2016-05-03T02:21:23.300Z,68.06
2016-05-03T02:22:23.349Z,68.26
2016-05-03T02:23:23.368Z,68.92
2016-05-03T02:24:23.261Z,68.82
2016-05-03T02:25:23.435Z,68.73
2016-05-03T02:26:23.485Z,68.73
2016-05-03T02:27:23.520Z,68.82
2016-05-03T02:28:23.553Z,69.02
2016-05-03T02:29:23.587Z,69.02
2016-05-03T02:30:23.465Z,69.4
2016-05-03T02:31:23.656Z,69.87
2016-05-03T02:32:23.533Z,69.87
2016-05-03T02:33:23.722Z,69.68
2016-05-03T02:34:23.757Z,69.87
2016-05-03T02:35:23.791Z,69.78
2016-05-03T02:36:23.825Z,69.87
2016-05-03T02:37:24.092Z,69.78
2016-05-03T02:38:23.909Z,69.97
2016-05-03T02:39:23.942Z,70.07
2016-05-03T02:40:23.960Z,70.36
2016-05-03T02:41:23.853Z,70.07
2016-05-03T02:42:24.028Z,70.26
2016-05-03T02:43:24.078Z,70.26
2016-05-03T02:44:24.112Z,70.26
2016-05-03T02:45:24.146Z,70.45
2016-05-03T02:46:24.180Z,70.64
2016-05-03T02:47:24.214Z,70.83
2016-05-03T02:48:24.247Z,71.02
2016-05-03T02:49:24.282Z,71.31
2016-05-03T02:50:24.315Z,71.12
2016-05-03T02:51:24.350Z,70.73
2016-05-03T02:52:24.383Z,70.26
2016-05-03T02:53:24.418Z,70.07
2016-05-03T02:54:24.296Z,70.45
2016-05-03T02:55:24.486Z,70.07
2016-05-03T02:56:24.363Z,71.12
2016-05-03T02:57:24.554Z,70.83
2016-05-03T02:58:24.588Z,71.59
2016-05-03T02:59:24.637Z,71.12
2016-05-03T03:00:24.671Z,71.31
2016-05-03T03:01:24.689Z,71.02
2016-05-03T03:02:24.567Z,71.02
2016-05-03T03:03:24.773Z,71.21
2016-05-03T03:04:24.807Z,71.02
2016-05-03T03:05:24.840Z,71.21
2016-05-03T03:06:24.859Z,71.88
2016-05-03T03:07:26.221Z,71.41
2016-05-03T03:08:24.942Z,71.69
2016-05-03T03:09:24.975Z,71.88
2016-05-03T03:10:25.011Z,71.69
2016-05-03T03:11:25.044Z,71.69
2016-05-03T03:12:25.078Z,71.5
2016-05-03T03:13:25.111Z,71.5
2016-05-03T03:14:25.006Z,71.31
2016-05-03T03:15:25.180Z,71.12
2016-05-03T03:16:25.214Z,72.07
2016-05-03T03:17:25.248Z,71.88
2016-05-03T03:18:25.125Z,71.59
2016-05-03T03:19:25.316Z,71.69
2016-05-03T03:20:25.365Z,71.5
2016-05-03T03:21:25.383Z,71.5
2016-05-03T03:22:25.449Z,71.41
2016-05-03T03:23:25.467Z,71.59
2016-05-03T03:24:25.501Z,71.78
2016-05-03T03:25:25.535Z,71.78
2016-05-03T03:26:25.568Z,71.5
2016-05-03T03:27:25.587Z,71.5
2016-05-03T03:28:25.637Z,71.41
2016-05-03T03:29:25.671Z,71.59
2016-05-03T03:30:25.705Z,71.59
2016-05-03T03:31:25.739Z,71.21
2016-05-03T03:32:25.773Z,71.12
2016-05-03T03:33:25.807Z,71.12
2016-05-03T03:34:25.840Z,71.41
2016-05-03T03:35:25.874Z,71.5
2016-05-03T03:36:25.909Z,71.21
2016-05-03T03:37:26.286Z,71.31
2016-05-03T03:38:25.976Z,71.69
2016-05-03T03:39:26.010Z,71.69
2016-05-03T03:40:26.059Z,71.31
2016-05-03T03:41:26.078Z,71.78
2016-05-03T03:42:26.112Z,71.78
2016-05-03T03:43:26.146Z,71.75
2016-05-03T03:44:26.196Z,71.69
2016-05-03T03:45:26.229Z,70.83
2016-05-03T03:46:26.263Z,71.31
2016-05-03T03:47:26.281Z,70.92
2016-05-03T03:48:26.331Z,71.5
2016-05-03T03:49:26.349Z,71.12
2016-05-03T03:50:26.384Z,71.12
2016-05-03T03:51:26.433Z,71.31
2016-05-03T03:52:26.467Z,71.78
2016-05-03T03:53:26.501Z,71.12
2016-05-03T03:54:26.550Z,71.12
2016-05-03T03:55:26.568Z,71.21
2016-05-03T03:56:26.603Z,70.64
2016-05-03T03:57:26.637Z,70.92
2016-05-03T03:58:26.670Z,70.92
2016-05-03T03:59:26.704Z,70.73
2016-05-03T04:00:26.738Z,70.92
2016-05-03T04:01:26.773Z,70.64
2016-05-03T04:02:26.822Z,70.73
2016-05-03T04:03:26.840Z,70.07
2016-05-03T04:04:26.874Z,70.07
2016-05-03T04:05:26.909Z,70.26
2016-05-03T04:06:26.943Z,70.26
2016-05-03T04:07:26.835Z,70.45
2016-05-03T04:08:27.025Z,70.73
2016-05-03T04:09:27.059Z,70.73
2016-05-03T04:10:27.078Z,70.64
2016-05-03T04:11:27.128Z,70.54
2016-05-03T04:12:27.162Z,70.07
2016-05-03T04:13:27.196Z,70.36
2016-05-03T04:14:27.213Z,70.36
2016-05-03T04:15:27.247Z,70.73
2016-05-03T04:16:27.297Z,70.36
2016-05-03T04:17:27.316Z,70.64
2016-05-03T04:18:27.194Z,70.26
2016-05-03T04:19:27.399Z,71.02
2016-05-03T04:20:27.417Z,71.12
2016-05-03T04:21:27.487Z,71.12
2016-05-03T04:22:27.895Z,71.02
2016-05-03T04:23:27.648Z,71.12
2016-05-03T04:24:27.557Z,71.78
2016-05-03T04:25:27.794Z,71.5
2016-05-03T04:26:27.714Z,71.88
2016-05-03T04:27:27.922Z,72.26
2016-05-03T04:28:27.987Z,72.83
2016-05-03T04:29:28.022Z,73.6
2016-05-03T04:30:28.088Z,73.98
2016-05-03T04:31:28.122Z,74.37
2016-05-03T04:32:28.161Z,75.22
2016-05-03T04:33:28.218Z,75.51
2016-05-03T04:34:28.242Z,76.75
2016-05-03T04:35:28.298Z,76.75
2016-05-03T04:36:28.337Z,77.47
2016-05-03T04:37:29.014Z,77.47
2016-05-03T04:38:28.238Z,77
2016-05-03T04:39:28.430Z,77
2016-05-03T04:40:28.467Z,77
2016-05-03T04:41:28.519Z,76.71
2016-05-03T04:42:28.537Z,75.95
2016-05-03T04:43:28.588Z,76.29
2016-05-03T04:44:28.623Z,77.2
2016-05-03T04:45:28.658Z,78.25
2016-05-03T04:46:28.676Z,79.88
2016-05-03T04:47:28.726Z,80.26
2016-05-03T04:48:28.761Z,80.54
2016-05-03T04:49:28.795Z,81.46
2016-05-03T04:50:28.673Z,81.17
2016-05-03T04:51:28.863Z,81.36
2016-05-03T04:52:28.898Z,82.21
2016-05-03T04:53:28.931Z,82.41
2016-05-03T04:54:28.965Z,82.6
2016-05-03T04:55:28.984Z,82.12
2016-05-03T04:56:29.065Z,82.21
2016-05-03T04:57:29.067Z,82.89
2016-05-03T04:58:29.101Z,83.84
2016-05-03T04:59:29.135Z,83.93
2016-05-03T05:00:29.169Z,84.22
2016-05-03T05:01:29.187Z,84.22
2016-05-03T05:02:29.221Z,83.65
2016-05-03T05:03:29.271Z,84.41
2016-05-03T05:04:29.305Z,84.22
2016-05-03T05:05:29.339Z,83.84
2016-05-03T05:06:29.372Z,83.84
2016-05-03T05:07:29.844Z,84.12
2016-05-03T05:08:29.284Z,83.93
2016-05-03T05:09:29.459Z,83.84
2016-05-03T05:10:29.492Z,85.03
2016-05-03T05:11:29.527Z,85.7
2016-05-03T05:12:29.561Z,85.13
2016-05-03T05:13:29.610Z,85.41
2016-05-03T05:14:29.628Z,85.03
2016-05-03T05:15:29.506Z,85.27
2016-05-03T05:16:29.696Z,84.98
2016-05-03T05:17:29.730Z,85.27
2016-05-03T05:18:29.764Z,85.08
2016-05-03T05:19:29.798Z,85.03
2016-05-03T05:20:29.832Z,85.13
2016-05-03T05:21:29.866Z,85.7
2016-05-03T05:22:29.994Z,85.74
2016-05-03T05:23:29.934Z,85.93
2016-05-03T05:24:29.812Z,84.88
2016-05-03T05:25:29.987Z,85.17
2016-05-03T05:26:30.020Z,86.18
2016-05-03T05:27:30.070Z,85.84
2016-05-03T05:28:30.103Z,86.6
2016-05-03T05:29:30.137Z,85.46
2016-05-03T05:30:30.171Z,84.6
2016-05-03T05:31:30.206Z,84.03
2016-05-03T05:32:30.223Z,83.36
2016-05-03T05:33:30.258Z,81.89
2016-05-03T05:34:30.292Z,83.03
2016-05-03T05:35:30.325Z,82.93
2016-05-03T05:36:30.375Z,83.41
2016-05-03T05:37:30.253Z,82.56
2016-05-03T05:38:30.427Z,82.18
2016-05-03T05:39:30.462Z,82.46
2016-05-03T05:40:30.495Z,83.32
2016-05-03T05:41:30.529Z,83.8
2016-05-03T05:42:30.563Z,83.61
2016-05-03T05:43:30.441Z,83.98
2016-05-03T05:44:30.630Z,84.17
2016-05-03T05:45:30.665Z,83.98
2016-05-03T05:46:30.699Z,83.89
2016-05-03T05:47:30.733Z,84.27
2016-05-03T05:48:30.766Z,84.84
2016-05-03T05:49:30.801Z,84.99
2016-05-03T05:50:30.819Z,85.56
2016-05-03T05:51:30.869Z,85.37
2016-05-03T05:52:32.512Z,85.22
2016-05-03T05:53:31.015Z,85.32
2016-05-03T05:54:30.955Z,85.51
2016-05-03T05:55:30.988Z,86.08
2016-05-03T05:56:31.023Z,85.41
2016-05-03T05:57:31.057Z,84.27
2016-05-03T05:58:31.106Z,84.84
2016-05-03T05:59:30.968Z,84.84
2016-05-03T06:00:31.159Z,85.32
2016-05-03T06:01:31.192Z,85.22
2016-05-03T06:02:31.211Z,85.13
2016-05-03T06:03:31.259Z,84.27
2016-05-03T06:04:31.138Z,84.56
2016-05-03T06:05:31.313Z,84.27
2016-05-03T06:06:31.362Z,84.17
2016-05-03T06:07:31.489Z,83.98
2016-05-03T06:08:31.414Z,84.27
2016-05-03T06:09:31.448Z,83.41
2016-05-03T06:10:31.483Z,83.61
2016-05-03T06:11:31.361Z,83.61
2016-05-03T06:12:31.550Z,83.51
2016-05-03T06:13:31.583Z,83.89
2016-05-03T06:14:31.619Z,84.94
2016-05-03T06:15:31.652Z,84.75
2016-05-03T06:16:31.686Z,83.51
2016-05-03T06:17:31.720Z,83.7
2016-05-03T06:18:31.755Z,83.61
2016-05-03T06:19:31.788Z,83.51
2016-05-03T06:20:31.822Z,83.32
2016-05-03T06:21:31.855Z,83.32
2016-05-03T06:22:31.999Z,83.36
2016-05-03T06:23:31.939Z,83.74
2016-05-03T06:24:31.942Z,82.12
2016-05-03T06:25:31.991Z,82.12
2016-05-03T06:26:32.025Z,82.84
2016-05-03T06:27:32.044Z,82.93
2016-05-03T06:28:32.093Z,81.55
2016-05-03T06:29:32.127Z,81.98
2016-05-03T06:30:32.146Z,82.31
2016-05-03T06:31:32.179Z,82.21
2016-05-03T06:32:32.213Z,81.93
2016-05-03T06:33:32.091Z,82.31
2016-05-03T06:34:32.281Z,81.46
2016-05-03T06:35:32.315Z,80.69
2016-05-03T06:36:32.349Z,81.84
2016-05-03T06:37:32.587Z,81.79
2016-05-03T06:38:32.416Z,81.26
2016-05-03T06:39:32.451Z,82.08
2016-05-03T06:40:32.484Z,81.93
2016-05-03T06:41:32.519Z,81.84
2016-05-03T06:42:32.553Z,81.74
2016-05-03T06:43:32.587Z,81.89
2016-05-03T06:44:32.620Z,81.46
2016-05-03T06:45:32.654Z,81.07
2016-05-03T06:46:32.688Z,80.88
2016-05-03T06:47:32.722Z,80.88
2016-05-03T06:48:32.600Z,80.88
2016-05-03T06:49:32.791Z,81.46
2016-05-03T06:50:32.824Z,80.69
2016-05-03T06:51:32.858Z,81.07
2016-05-03T06:52:33.064Z,80.98
2016-05-03T06:53:32.926Z,80.88
2016-05-03T06:54:32.804Z,79.64
2016-05-03T06:55:32.993Z,78.5
2016-05-03T06:56:32.872Z,79.11
2016-05-03T06:57:33.062Z,79.3
2016-05-03T06:58:33.096Z,79.02
2016-05-03T06:59:33.130Z,78.16
2016-05-03T07:00:33.163Z,78.06
2016-05-03T07:01:33.198Z,77.59
2016-05-03T07:02:33.232Z,77.2
2016-05-03T07:03:33.265Z,77.2
2016-05-03T07:04:33.299Z,76.92
2016-05-03T07:05:33.334Z,76.35
2016-05-03T07:06:33.368Z,77.3
2016-05-03T07:07:33.417Z,77.4
2016-05-03T07:08:33.435Z,77.49
2016-05-03T07:09:33.469Z,77.2
2016-05-03T07:10:33.503Z,77.4
2016-05-03T07:11:33.553Z,77.01
2016-05-03T07:12:33.571Z,77.69
2016-05-03T07:13:33.606Z,77.97
2016-05-03T07:14:33.639Z,77.97
2016-05-03T07:15:33.673Z,78.44
2016-05-03T07:16:33.722Z,78.92
2016-05-03T07:17:33.756Z,79.11
2016-05-03T07:18:33.791Z,78.83
2016-05-03T07:19:33.839Z,77.87
2016-05-03T07:20:33.858Z,77.2
2016-05-03T07:21:33.877Z,77.2
2016-05-03T07:22:33.927Z,77.97
2016-05-03T07:23:33.960Z,77.78
2016-05-03T07:24:33.994Z,77.78
2016-05-03T07:25:34.028Z,78.44
2016-05-03T07:26:34.062Z,78.54
2016-05-03T07:27:34.080Z,79.11
2016-05-03T07:28:34.129Z,77.59
2016-05-03T07:29:34.164Z,77.11
2016-05-03T07:30:34.041Z,77.59
2016-05-03T07:31:34.232Z,77.3
2016-05-03T07:32:34.282Z,77.69
2016-05-03T07:33:34.299Z,76.44
2016-05-03T07:34:34.334Z,75.68
2016-05-03T07:35:34.367Z,77.3
2016-05-03T07:36:34.401Z,76.16
2016-05-03T07:37:34.435Z,75.49
2016-05-03T07:38:34.484Z,74.06
2016-05-03T07:39:34.504Z,73.96
2016-05-03T07:40:34.537Z,74.35
2016-05-03T07:41:34.571Z,74.35
2016-05-03T07:42:34.606Z,74.06
2016-05-03T07:43:34.639Z,73.77
2016-05-03T07:44:34.517Z,73.87
2016-05-03T07:45:34.706Z,74.54
2016-05-03T07:46:34.756Z,73.68
2016-05-03T07:47:34.790Z,73.96
2016-05-03T07:48:34.809Z,71.04
2016-05-03T07:49:34.842Z,68.03
2016-05-03T07:50:34.877Z,68.16
2016-05-03T07:51:34.911Z,68.26
2016-05-03T07:52:34.835Z,68.44
2016-05-03T07:53:34.994Z,69.65
2016-05-03T07:54:34.856Z,69.56
2016-05-03T07:55:35.047Z,67.49
2016-05-03T07:56:35.096Z,64.28
2016-05-03T07:57:34.973Z,61.82
2016-05-03T07:58:35.538Z,60.61
2016-05-03T07:59:35.197Z,58.7
2016-05-03T08:00:35.232Z,56.84
2016-05-03T08:01:35.266Z,54.57
2016-05-03T08:02:35.316Z,52.59
2016-05-03T08:03:35.365Z,51.95
2016-05-03T08:04:35.383Z,51.54
2016-05-03T08:05:35.418Z,51.34
2016-05-03T08:06:35.295Z,53.42
2016-05-03T08:07:35.501Z,53.14
2016-05-03T08:08:35.551Z,53.52
2016-05-03T08:09:35.568Z,53.14
2016-05-03T08:10:35.445Z,53.62
2016-05-03T08:11:35.652Z,54.1
2016-05-03T08:12:35.686Z,55.69
2016-05-03T08:13:35.734Z,57.87
2016-05-03T08:14:35.770Z,58.61
2016-05-03T08:15:35.803Z,59.66
2016-05-03T08:16:35.853Z,60.42
2016-05-03T08:17:35.887Z,60.96
2016-05-03T08:18:35.920Z,63.07
2016-05-03T08:19:35.955Z,64.09
2016-05-03T08:20:35.988Z,65.14
2016-05-03T08:21:36.022Z,65.48
2016-05-03T08:22:35.916Z,65.1
2016-05-03T08:23:35.966Z,65.1
2016-05-03T08:24:35.999Z,65.48
2016-05-03T08:25:36.189Z,65.39
2016-05-03T08:26:36.224Z,64.43
2016-05-03T08:27:36.272Z,63.42
2016-05-03T08:28:36.307Z,63.03
2016-05-03T08:29:36.341Z,62.18
2016-05-03T08:30:36.375Z,60.93
2016-05-03T08:31:36.502Z,59.37
2016-05-03T08:32:36.458Z,57.55
2016-05-03T08:33:36.492Z,57.36
2016-05-03T08:34:36.526Z,58.22
2016-05-03T08:35:36.560Z,58.76
2016-05-03T08:36:36.625Z,60.17
2016-05-03T08:37:37.003Z,60.17
2016-05-03T08:38:36.677Z,61.6
2016-05-03T08:39:36.711Z,61.6
2016-05-03T08:40:36.604Z,61.89
2016-05-03T08:41:36.795Z,61.79
2016-05-03T08:42:36.828Z,61.13
2016-05-03T08:43:36.878Z,60.74
2016-05-03T08:44:36.898Z,61.13
2016-05-03T08:45:36.946Z,61.16
2016-05-03T08:46:36.995Z,60.49
2016-05-03T08:47:37.015Z,56.69
2016-05-03T08:48:37.048Z,55.45
2016-05-03T08:49:37.097Z,54.23
2016-05-03T08:50:37.131Z,51.87
2016-05-03T08:51:37.166Z,52.18
2016-05-03T08:52:37.543Z,53.33
2016-05-03T08:53:37.249Z,53.49
2016-05-03T08:54:37.283Z,54.71
2016-05-03T08:55:37.317Z,55.35
2016-05-03T08:56:37.367Z,55.35
2016-05-03T08:57:37.400Z,54.43
2016-05-03T08:58:37.435Z,54.52
2016-05-03T08:59:37.484Z,53.18
2016-05-03T09:00:39.752Z,52.7
2016-05-03T09:01:37.552Z,53.18
2016-05-03T09:02:37.585Z,52.13
2016-05-03T09:03:37.479Z,51.77
2016-05-03T09:04:37.669Z,50.52
2016-05-03T09:05:37.704Z,50.62
2016-05-03T09:06:37.737Z,50.65
2016-05-03T09:07:37.630Z,51.01
2016-05-03T09:08:37.821Z,50.62
2016-05-03T09:09:37.870Z,50.72
2016-05-03T09:10:37.904Z,49.95
2016-05-03T09:11:37.938Z,49.31
2016-05-03T09:12:37.973Z,49.52
2016-05-03T09:13:38.021Z,49.14
2016-05-03T09:14:38.056Z,49.76
2016-05-03T09:15:38.089Z,50.62
2016-05-03T09:16:38.123Z,51.07
2016-05-03T09:17:38.173Z,52.51
2016-05-03T09:18:38.222Z,53.34
2016-05-03T09:19:38.084Z,54.78
2016-05-03T09:20:38.290Z,55.13
2016-05-03T09:21:38.324Z,52.94
2016-05-03T09:22:38.222Z,49.74
2016-05-03T09:23:38.392Z,47.2
2016-05-03T09:24:38.442Z,46.1
2016-05-03T09:25:38.507Z,45.07
2016-05-03T09:26:38.510Z,45.07
2016-05-03T09:27:38.559Z,44.68
2016-05-03T09:28:38.594Z,43.24
2016-05-03T09:29:38.627Z,41.35
2016-05-03T09:30:38.677Z,40.58
2016-05-03T09:31:38.710Z,38.59
2016-05-03T09:32:38.760Z,36.99
2016-05-03T09:33:38.793Z,37.02
2016-05-03T09:34:38.828Z,36.64
2016-05-03T09:35:38.721Z,38.07
2016-05-03T09:36:38.912Z,39.56
2016-05-03T09:37:38.961Z,39.93
2016-05-03T09:38:38.995Z,38.59
2016-05-03T09:39:39.045Z,38.53
2016-05-03T09:40:39.079Z,38.07
2016-05-03T09:41:39.128Z,39.66
2016-05-03T09:42:39.162Z,40.22
2016-05-03T09:43:39.212Z,39.23
2016-05-03T09:44:39.262Z,38.87
2016-05-03T09:45:39.295Z,39.37
2016-05-03T09:46:39.345Z,40.5
2016-05-03T09:47:39.379Z,42.4
2016-05-03T09:48:39.428Z,43.24
2016-05-03T09:49:39.462Z,43.41
2016-05-03T09:50:39.495Z,44.66
2016-05-03T09:51:39.546Z,46.08
2016-05-03T09:52:40.423Z,47.2
2016-05-03T09:53:39.628Z,48.39
2016-05-03T09:54:39.679Z,49.35
2016-05-03T09:55:39.713Z,49.8
2016-05-03T09:56:39.747Z,50.57
2016-05-03T09:57:39.797Z,50.76
2016-05-03T09:58:39.830Z,50.12
2016-05-03T09:59:39.880Z,50.41
2016-05-03T10:00:39.913Z,50.57
2016-05-03T10:01:39.948Z,50.79
2016-05-03T10:02:40.013Z,45.51
2016-05-03T10:03:39.874Z,44
2016-05-03T10:04:40.080Z,42.4
2016-05-03T10:05:40.146Z,40.5
2016-05-03T10:06:40.163Z,40.98
2016-05-03T10:07:40.104Z,39.52
2016-05-03T10:08:40.232Z,39.73
2016-05-03T10:09:40.265Z,37.93
2016-05-03T10:10:40.315Z,37.36
2016-05-03T10:11:40.349Z,37.74
2016-05-03T10:12:40.399Z,38.22
2016-05-03T10:13:40.432Z,37.74
2016-05-03T10:14:40.467Z,36.42
2016-05-03T10:15:40.532Z,35.67
2016-05-03T10:16:40.566Z,34.27
2016-05-03T10:17:40.600Z,33.21
2016-05-03T10:18:40.650Z,33.13
2016-05-03T10:19:40.683Z,32.67
2016-05-03T10:20:40.734Z,34.75
2016-05-03T10:21:40.767Z,35.3
2016-05-03T10:22:40.847Z,35.21
2016-05-03T10:23:40.850Z,36.07
2016-05-03T10:24:40.900Z,36.46
2016-05-03T10:25:40.950Z,36.36
2016-05-03T10:26:40.968Z,36.93
2016-05-03T10:27:41.049Z,37.87
2016-05-03T10:28:41.067Z,39.2
2016-05-03T10:29:41.117Z,40.14
2016-05-03T10:30:41.150Z,40.9
2016-05-03T10:31:41.185Z,40.9
2016-05-03T10:32:41.234Z,38.72
2016-05-03T10:33:41.283Z,37.11
2016-05-03T10:34:41.318Z,35.8
2016-05-03T10:35:41.367Z,36.09
2016-05-03T10:36:41.417Z,36.01
2016-05-03T10:37:41.857Z,35.99
2016-05-03T10:38:41.485Z,36.11
2016-05-03T10:39:41.535Z,35.34
2016-05-03T10:40:41.584Z,34.59
2016-05-03T10:41:41.618Z,33.26
2016-05-03T10:42:41.668Z,32.78
2016-05-03T10:43:41.717Z,33.07
2016-05-03T10:44:41.751Z,33.26
2016-05-03T10:45:41.644Z,34.39
2016-05-03T10:46:41.834Z,34.68
2016-05-03T10:47:41.884Z,33.05
2016-05-03T10:48:41.933Z,33.13
2016-05-03T10:49:41.983Z,34.27
2016-05-03T10:50:42.017Z,33.9
2016-05-03T10:51:42.067Z,35.16
2016-05-03T10:52:42.101Z,35.78
2016-05-03T10:53:42.165Z,35.51
2016-05-03T10:54:42.199Z,34.86
2016-05-03T10:55:42.250Z,34.28
2016-05-03T10:56:42.283Z,35.63
2016-05-03T10:57:42.333Z,36.57
2016-05-03T10:58:42.383Z,38.09
2016-05-03T10:59:42.260Z,39.5
2016-05-03T11:00:42.466Z,40.44
2016-05-03T11:01:42.516Z,39.65
2016-05-03T11:02:42.549Z,40.42
2016-05-03T11:03:42.614Z,41.17
2016-05-03T11:04:42.664Z,41.53
2016-05-03T11:05:42.682Z,42.01
2016-05-03T11:06:42.575Z,41.91
2016-05-03T11:07:42.766Z,42.18
2016-05-03T11:08:42.659Z,42.76
2016-05-03T11:09:42.866Z,42.94
2016-05-03T11:10:42.899Z,42.94
2016-05-03T11:11:42.901Z,43.21
2016-05-03T11:12:42.983Z,43.98
2016-05-03T11:13:43.015Z,43.98
2016-05-03T11:14:43.050Z,43.8
2016-05-03T11:15:43.099Z,43.79
2016-05-03T11:16:43.134Z,43.69
2016-05-03T11:17:43.184Z,43.8
2016-05-03T11:18:43.217Z,43.04
2016-05-03T11:19:43.267Z,41.44
2016-05-03T11:20:43.487Z,41.46
2016-05-03T11:21:43.335Z,41.65
2016-05-03T11:22:43.384Z,41.27
2016-05-03T11:23:43.418Z,40.69
2016-05-03T11:24:43.453Z,37.05
2016-05-03T11:25:43.501Z,36.08
2016-05-03T11:26:43.536Z,37.04
2016-05-03T11:27:43.570Z,38.07
2016-05-03T11:28:43.619Z,40.08
2016-05-03T11:29:43.653Z,40.84
2016-05-03T11:30:43.687Z,41.03
2016-05-03T11:31:43.736Z,42.35
2016-05-03T11:32:43.770Z,43.3
2016-05-03T11:33:43.820Z,43.4
2016-05-03T11:34:43.854Z,43.3
2016-05-03T11:35:43.732Z,43.3
2016-05-03T11:36:43.922Z,43.79
2016-05-03T11:37:43.971Z,43.9
2016-05-03T11:38:44.005Z,40.58
2016-05-03T11:39:44.039Z,39.18
2016-05-03T11:40:44.088Z,37.87
2016-05-03T11:41:44.139Z,36.46
2016-05-03T11:42:44.172Z,35.14
2016-05-03T11:43:44.207Z,34.67
2016-05-03T11:44:44.257Z,34.3
2016-05-03T11:45:44.290Z,35.82
2016-05-03T11:46:44.339Z,37.15
2016-05-03T11:47:44.217Z,38.66
2016-05-03T11:48:44.423Z,39.7
2016-05-03T11:49:44.457Z,40.94
2016-05-03T11:50:44.507Z,42.74
2016-05-03T11:51:44.540Z,45.69
2016-05-03T11:52:44.590Z,47.2
2016-05-03T11:53:44.608Z,48.07
2016-05-03T11:54:44.502Z,47.27
2016-05-03T11:55:44.692Z,47.37
2016-05-03T11:56:44.585Z,48.11
2016-05-03T11:57:44.634Z,47.73
2016-05-03T11:58:44.825Z,48.49
2016-05-03T11:59:44.859Z,49.16
2016-05-03T12:00:44.908Z,49.16
2016-05-03T12:01:44.943Z,46.8
2016-05-03T12:02:44.992Z,44.04
2016-05-03T12:03:45.025Z,41
2016-05-03T12:04:45.060Z,38.09
2016-05-03T12:05:45.109Z,33.99
2016-05-03T12:06:45.144Z,32.86
2016-05-03T12:07:45.178Z,32.39
2016-05-03T12:08:45.227Z,31.62
2016-05-03T12:09:45.120Z,30.47
2016-05-03T12:10:45.170Z,29.62
2016-05-03T12:11:45.360Z,28.96
2016-05-03T12:12:45.410Z,29.44
2016-05-03T12:13:45.443Z,29.04
2016-05-03T12:14:45.509Z,29.62
2016-05-03T12:15:45.543Z,34.09
2016-05-03T12:16:45.592Z,35.21
2016-05-03T12:17:45.626Z,35.97
2016-05-03T12:18:45.676Z,36.15
2016-05-03T12:19:45.726Z,33.56
2016-05-03T12:20:45.604Z,32.86
2016-05-03T12:21:45.809Z,31.71
2016-05-03T12:22:45.702Z,31.69
2016-05-03T12:23:45.737Z,30.43
2016-05-03T12:24:45.943Z,31.01
2016-05-03T12:25:45.976Z,31.85
2016-05-03T12:26:46.025Z,33.67
2016-05-03T12:27:46.075Z,34.53
2016-05-03T12:28:46.109Z,35.1
2016-05-03T12:29:46.002Z,36.82
2016-05-03T12:30:46.192Z,38.54
2016-05-03T12:31:46.226Z,40.26
2016-05-03T12:32:46.276Z,40.63
2016-05-03T12:33:46.295Z,40.34
2016-05-03T12:34:46.344Z,41.01
2016-05-03T12:35:46.393Z,41.2
2016-05-03T12:36:46.271Z,41.87
2016-05-03T12:37:46.461Z,41.58
2016-05-03T12:38:46.511Z,42.35
2016-05-03T12:39:46.545Z,41.41
2016-05-03T12:40:46.422Z,41.11
2016-05-03T12:41:46.628Z,40.15
2016-05-03T12:42:46.662Z,39.22
2016-05-03T12:43:46.711Z,39.03
2016-05-03T12:44:46.745Z,39.6
2016-05-03T12:45:46.780Z,39.5
2016-05-03T12:46:46.814Z,39.5
2016-05-03T12:47:46.707Z,38.95
2016-05-03T12:48:46.897Z,38.66
2016-05-03T12:49:46.931Z,37.7
2016-05-03T12:50:46.824Z,35.42
2016-05-03T12:51:47.014Z,31.93
2016-05-03T12:52:47.048Z,30.02
2016-05-03T12:53:47.082Z,28.03
2016-05-03T12:54:47.131Z,27.47
2016-05-03T12:55:47.025Z,26.12
2016-05-03T12:56:47.200Z,25.46